Time;durP1;ratioP1;P1;durP2;ratioP2;P2;SDS_P1;SDS_P2;PMS_P1;PMS_P2;Temp;Humidity;BMP_temperature;BMP_pressure;BME280_temperature;BME280_humidity;BME280_pressure;Samples;Min_cycle;Max_cycle;Signal;HPM_P1;HPM_P2
2023/05/25 00:01:48;;;;;;;14.53;9.57;;;;;;;15.74;81.67;97571.78;10365025;28;19912;-52
2023/05/25 00:06:47;;;;;;;;;;;;;;;15.66;82.40;97582.41;10365437;28;20029;-49
2023/05/25 00:11:46;;;;;;;12.60;10.43;;;;;;;15.61;83.24;97589.50;10364938;28;19927;-52
2023/05/25 00:16:47;;;;;;;;;;;;;;;15.58;84.27;97592.19;10364965;28;20476;-52
2023/05/25 00:21:47;;;;;;;18.85;12.95;;;;;;;15.30;85.22;97584.13;10364243;28;19955;-52
2023/05/25 00:26:46;;;;;;;19.55;13.57;;;;;;;15.12;86.34;97582.78;10363527;28;20124;-50
2023/05/25 00:31:45;;;;;;;;;;;;;;;14.99;87.75;97586.53;10364689;28;20048;-52
2023/05/25 00:36:47;;;;;;;16.83;12.77;;;;;;;15.00;88.09;97594.34;10364270;28;20019;-53
2023/05/25 00:41:47;;;;;;;16.33;11.77;;;;;;;14.92;88.11;97579.72;10363892;28;20067;-53
2023/05/25 00:46:49;;;;;;;15.65;12.00;;;;;;;14.91;88.09;97583.25;10363777;28;20100;-51
2023/05/25 00:51:50;;;;;;;14.02;11.43;;;;;;;14.71;88.83;97581.91;10362745;28;20171;-50
2023/05/25 00:56:52;;;;;;;14.95;10.98;;;;;;;14.78;88.18;97593.06;10360971;28;20176;-53
2023/05/25 01:01:54;;;;;;;16.17;13.23;;;;;;;14.66;88.61;97591.53;10365947;28;20129;-52
2023/05/25 01:06:56;;;;;;;19.63;12.95;;;;;;;14.67;89.31;97608.09;10368482;28;20064;-52
2023/05/25 01:11:56;;;;;;;16.80;12.98;;;;;;;14.59;88.93;97611.72;10371618;28;20118;-51
2023/05/25 01:16:57;;;;;;;18.80;13.48;;;;;;;14.52;89.51;97619.69;10371094;28;20599;-51
2023/05/25 01:22:19;;;;;;;16.08;13.02;;;;;;;14.47;89.41;97618.91;10371350;28;20124;-53
2023/05/25 01:27:42;;;;;;;15.98;12.98;;;;;;;14.46;89.33;97615.44;10371456;28;20136;-49
2023/05/25 01:32:42;;;;;;;17.73;13.00;;;;;;;14.41;88.83;97615.53;10370346;28;20131;-52
2023/05/25 01:37:45;;;;;;;14.90;11.75;;;;;;;14.38;88.85;97610.38;10370984;28;20117;-51
2023/05/25 01:42:44;;;;;;;17.05;11.88;;;;;;;14.38;89.13;97609.50;10371086;28;20072;-50
2023/05/25 01:47:45;;;;;;;;;;;;;;;14.37;88.89;97615.63;10370860;28;20029;-50
2023/05/25 01:52:54;;;;;;;14.15;10.95;;;;;;;14.35;88.52;97618.25;10369697;28;19955;-49
2023/05/25 01:57:57;;;;;;;15.00;12.02;;;;;;;14.30;88.14;97617.47;10370388;28;20568;-51
2023/05/25 02:02:57;;;;;;;16.23;12.02;;;;;;;14.31;88.40;97627.03;10369798;28;20060;-50
2023/05/25 02:07:56;;;;;;;17.25;11.07;;;;;;;14.25;88.56;97621.91;10369017;28;20119;-50
2023/05/25 02:12:54;;;;;;;;;;;;;;;14.18;87.76;97629.00;10370316;28;20044;-51
2023/05/25 02:17:56;;;;;;;14.75;10.10;;;;;;;14.17;87.55;97626.41;10368713;28;19917;-51
2023/05/25 02:22:55;;;;;;;13.27;10.98;;;;;;;14.09;87.43;97629.16;10369276;28;20073;-49
2023/05/25 02:27:54;;;;;;;;;;;;;;;14.07;86.70;97624.84;10370170;28;20079;-52
2023/05/25 02:32:53;;;;;;;12.90;10.50;;;;;;;13.95;86.80;97625.91;10368402;28;20643;-51
2023/05/25 02:37:52;;;;;;;;;;;;;;;13.93;86.98;97635.50;10369028;28;20547;-49
2023/05/25 02:42:50;;;;;;;13.02;10.38;;;;;;;13.86;86.61;97645.16;10368841;28;20393;-51
2023/05/25 02:47:49;;;;;;;;;;;;;;;13.80;87.16;97645.28;10369284;28;20104;-52
2023/05/25 02:52:48;;;;;;;12.85;10.70;;;;;;;13.79;86.61;97646.16;10367762;28;20002;-52
2023/05/25 02:57:47;;;;;;;;;;;;;;;13.78;87.30;97660.09;10369038;28;20120;-51
2023/05/25 03:02:47;;;;;;;18.63;11.38;;;;;;;13.82;87.97;97655.69;10367847;28;19916;-50
2023/05/25 03:07:46;;;;;;;14.77;10.07;;;;;;;13.91;87.80;97663.38;10367605;28;20068;-51
2023/05/25 03:12:45;;;;;;;16.50;11.05;;;;;;;13.88;88.52;97666.03;10367490;28;20076;-50
2023/05/25 03:17:44;;;;;;;;;;;;;;;13.96;89.05;97670.25;10367610;28;20510;-52
2023/05/25 03:22:43;;;;;;;18.60;11.07;;;;;;;14.10;88.79;97676.97;10366380;28;19920;-51
2023/05/25 03:27:42;;;;;;;;;;;;;;;14.24;88.43;97674.13;10368313;28;20025;-49
2023/05/25 03:32:41;;;;;;;17.17;11.90;;;;;;;14.35;88.38;97667.84;10366900;28;19956;-52
2023/05/25 03:37:40;;;;;;;;;;;;;;;14.47;87.45;97663.28;10366610;28;20037;-52
2023/05/25 03:42:38;;;;;;;19.93;12.60;;;;;;;14.53;87.37;97671.03;10366810;28;20001;-51
2023/05/25 03:47:37;;;;;;;;;;;;;;;14.59;87.16;97671.78;10366183;28;20550;-52
2023/05/25 03:52:36;;;;;;;16.80;11.97;;;;;;;14.53;87.09;97681.47;10365612;28;20458;-51
2023/05/25 03:57:35;;;;;;;;;;;;;;;14.43;87.75;97690.34;10365996;28;20039;-52
2023/05/25 04:02:35;;;;;;;17.55;11.38;;;;;;;14.52;86.76;97684.97;10365119;28;20387;-51
2023/05/25 04:07:35;;;;;;;16.48;11.13;;;;;;;14.44;87.12;97687.72;10364277;28;20121;-50
2023/05/25 04:12:35;;;;;;;15.55;10.40;;;;;;;14.42;87.35;97697.31;10364735;28;20068;-51
2023/05/25 04:17:36;;;;;;;15.25;11.65;;;;;;;14.38;87.15;97696.53;10363336;28;20476;-52
2023/05/25 04:22:37;;;;;;;17.20;12.13;;;;;;;14.19;87.06;97659.44;10363961;28;20123;-51
2023/05/25 04:27:36;;;;;;;25.88;13.32;;;;;;;14.35;87.25;97682.66;10363723;28;20635;-50
2023/05/25 04:32:36;;;;;;;;;;;;;;;14.48;87.18;97689.38;10364718;28;20029;-49
2023/05/25 04:37:35;;;;;;;15.70;12.68;;;;;;;14.54;87.04;97701.47;10370076;28;20011;-52
2023/05/25 04:42:36;;;;;;;18.25;13.63;;;;;;;14.62;86.55;97700.44;10371838;28;20480;-53
2023/05/25 04:47:36;;;;;;;17.83;13.23;;;;;;;14.56;86.86;97702.31;10372761;28;20068;-49
2023/05/25 04:52:35;;;;;;;16.85;13.95;;;;;;;14.58;87.07;97711.81;10369345;28;20124;-52
2023/05/25 04:57:34;;;;;;;18.95;13.80;;;;;;;14.73;87.11;97708.13;10372832;28;20128;-50
2023/05/25 05:02:33;;;;;;;21.77;15.73;;;;;;;14.93;86.61;97709.50;10372561;28;20487;-49
2023/05/25 05:07:32;;;;;;;;;;;;;;;15.04;86.67;97712.78;10373677;28;20582;-52
2023/05/25 05:12:31;;;;;;;22.07;14.60;;;;;;;15.27;86.51;97711.44;10371735;28;20314;-52
2023/05/25 05:17:30;;;;;;;;;;;;;;;15.56;85.83;97716.06;10373118;28;20037;-49
2023/05/25 05:22:28;;;;;;;20.97;14.23;;;;;;;15.78;84.40;97721.66;10371764;28;19927;-49
2023/05/25 05:27:27;;;;;;;;;;;;;;;15.99;83.59;97728.22;10371788;28;20411;-49
2023/05/25 05:32:26;;;;;;;18.17;12.77;;;;;;;16.26;82.75;97734.56;10372403;28;19919;-49
2023/05/25 05:37:25;;;;;;;;;;;;;;;16.47;80.16;97738.41;10368242;28;20108;-52
2023/05/25 05:42:24;;;;;;;31.90;15.43;;;;;;;16.57;79.10;97741.66;10369850;28;19960;-53
2023/05/25 05:47:23;;;;;;;23.13;14.35;;;;;;;16.59;80.44;97739.88;10369710;28;20091;-52
2023/05/25 05:52:22;;;;;;;20.63;13.55;;;;;;;16.61;80.85;97743.31;10369343;28;20134;-51
2023/05/25 05:57:21;;;;;;;;;;;;;;;16.27;82.03;97738.88;10373034;28;20029;-50
2023/05/25 06:02:19;;;;;;;25.20;14.27;;;;;;;16.11;82.82;97742.75;10366073;28;19955;-49
2023/05/25 06:07:19;;;;;;;28.77;15.07;;;;;;;15.93;84.34;97750.16;10364744;28;20043;-49
2023/05/25 06:12:18;;;;;;;20.08;13.70;;;;;;;15.56;86.31;97755.28;10367186;28;20594;-51
2023/05/25 06:17:18;;;;;;;21.63;13.95;;;;;;;15.65;86.47;97763.81;10368962;28;20128;-52
2023/05/25 06:22:17;;;;;;;18.42;13.20;;;;;;;15.87;85.78;97776.44;10364619;28;20076;-52
2023/05/25 06:27:16;;;;;;;14.13;10.88;;;;;;;16.04;84.78;97787.44;10366857;28;20041;-51
2023/05/25 06:32:15;;;;;;;16.00;11.18;;;;;;;16.37;82.92;97803.25;10365936;28;20095;-50
2023/05/25 06:37:14;;;;;;;16.00;10.80;;;;;;;16.59;81.20;97805.34;10364280;28;20473;-52
2023/05/25 06:42:13;;;;;;;46.38;13.38;;;;;;;16.95;81.50;97816.69;10362883;28;20384;-51
2023/05/25 06:47:12;;;;;;;31.33;12.02;;;;;;;17.16;80.35;97815.28;10360575;28;20021;-52
2023/05/25 06:52:11;;;;;;;17.77;11.27;;;;;;;17.14;78.80;97824.94;10361528;28;20156;-50
2023/05/25 06:57:10;;;;;;;16.88;11.68;;;;;;;17.22;77.91;97828.25;10367345;28;20037;-52
2023/05/25 07:02:09;;;;;;;15.15;11.63;;;;;;;17.21;78.91;97808.16;10363356;28;20129;-50
2023/05/25 07:07:08;;;;;;;15.85;12.07;;;;;;;17.40;79.41;97837.34;10364534;28;20124;-50
2023/05/25 07:12:08;;;;;;;21.67;13.23;;;;;;;17.65;80.99;97824.44;10363060;28;20136;-52
2023/05/25 07:17:07;;;;;;;21.67;14.50;;;;;;;17.86;82.55;97827.38;10363064;28;20472;-49
2023/05/25 07:22:06;;;;;;;21.88;14.77;;;;;;;18.05;83.23;97806.69;10366085;28;20024;-49
2023/05/25 07:27:05;;;;;;;18.70;13.95;;;;;;;18.54;82.35;97816.53;10368106;28;20045;-49
2023/05/25 07:32:05;;;;;;;21.33;13.98;;;;;;;18.65;80.40;97812.72;10369372;28;20076;-52
2023/05/25 07:37:05;;;;;;;14.20;10.75;;;;;;;18.92;76.24;97806.53;10367614;28;20779;-52
2023/05/25 07:42:04;;;;;;;14.50;11.77;;;;;;;19.19;76.90;97802.13;10362110;28;20065;-51
2023/05/25 07:47:05;;;;;;;15.05;10.98;;;;;;;19.78;78.32;97800.91;10365698;28;20124;-52
2023/05/25 07:52:05;;;;;;;13.43;10.38;;;;;;;20.25;72.31;97794.72;10362771;28;20068;-51
2023/05/25 07:57:05;;;;;;;12.18;10.25;;;;;;;20.63;72.22;97802.91;10360838;28;20132;-49
2023/05/25 08:02:05;;;;;;;11.43;9.32;;;;;;;20.85;66.08;97809.00;10360081;28;20131;-52
2023/05/25 08:07:04;;;;;;;13.05;8.82;;;;;;;20.68;65.74;97809.72;10364707;28;20080;-52
2023/05/25 08:12:04;;;;;;;11.23;8.65;;;;;;;20.52;65.70;97808.63;10365219;28;20041;-52
2023/05/25 08:17:03;;;;;;;10.30;8.75;;;;;;;20.37;65.49;97802.13;10363268;28;20119;-52
2023/05/25 08:22:02;;;;;;;13.07;8.55;;;;;;;20.81;64.60;97810.06;10368287;28;20068;-52
2023/05/25 08:27:02;;;;;;;11.45;8.82;;;;;;;20.69;66.41;97806.16;10367815;28;20063;-51
2023/05/25 08:32:01;;;;;;;9.80;8.30;;;;;;;21.06;64.63;97811.69;10368202;28;20073;-52
2023/05/25 08:37:00;;;;;;;10.02;8.00;;;;;;;21.49;62.19;97810.69;10367534;28;20056;-50
2023/05/25 08:41:59;;;;;;;10.15;8.02;;;;;;;21.71;61.49;97805.31;10367034;28;20072;-51
2023/05/25 08:47:06;;;;;;;8.45;7.55;;;;;;;22.29;58.79;97806.22;10363306;28;20136;-48
2023/05/25 08:52:12;;;;;;;11.68;7.80;;;;;;;22.57;58.95;97808.38;10367378;28;20491;-52
2023/05/25 08:57:16;;;;;;;8.85;7.00;;;;;;;22.63;55.28;97805.44;10366733;28;20143;-52
2023/05/25 09:02:33;;;;;;;8.40;7.07;;;;;;;23.16;55.25;97798.41;10366519;28;20061;-52
2023/05/25 09:07:33;;;;;;;10.32;6.95;;;;;;;23.45;53.52;97791.63;10367246;28;20053;-52
2023/05/25 09:12:33;;;;;;;11.30;7.25;;;;;;;23.47;53.64;97783.63;10367967;28;20680;-52
2023/05/25 09:17:32;;;;;;;11.35;7.43;;;;;;;23.30;52.48;97784.47;10366796;28;20124;-52
2023/05/25 09:22:31;;;;;;;10.27;6.85;;;;;;;22.86;53.23;97769.94;10370945;28;20032;-51
2023/05/25 09:27:34;;;;;;;9.43;6.70;;;;;;;22.60;54.02;97779.16;10373540;28;20025;-50
2023/05/25 09:32:34;;;;;;;10.35;6.72;;;;;;;22.29;54.10;97779.78;10373731;28;20076;-53
2023/05/25 09:37:35;;;;;;;10.02;6.80;;;;;;;22.30;55.46;97748.00;10372945;28;20076;-52
2023/05/25 09:42:34;;;;;;;8.25;5.80;;;;;;;22.82;52.07;97768.38;10373262;28;20061;-52
2023/05/25 09:47:35;;;;;;;9.55;6.90;;;;;;;23.66;53.80;97775.56;10370139;28;21662;-52
2023/05/25 09:52:35;;;;;;;9.80;7.50;;;;;;;23.71;52.03;97768.22;10372924;28;20079;-52
2023/05/25 09:57:34;;;;;;;11.88;7.03;;;;;;;23.96;50.83;97765.94;10366013;28;20135;-48
2023/05/25 10:02:33;;;;;;;10.02;6.63;;;;;;;24.15;49.88;97751.69;10364832;28;20112;-52
2023/05/25 10:07:33;;;;;;;6.35;5.28;;;;;;;23.92;46.65;97756.44;10373409;28;20107;-50
2023/05/25 10:12:33;;;;;;;6.25;5.53;;;;;;;24.02;46.03;97747.03;10369380;28;20187;-51
2023/05/25 10:17:34;;;;;;;7.25;5.30;;;;;;;24.04;44.94;97745.16;10370009;28;20675;-53
2023/05/25 10:22:46;;;;;;;7.93;5.97;;;;;;;23.71;46.84;97736.44;10371566;28;20056;-50
2023/05/25 10:28:13;;;;;;;7.38;5.70;;;;;;;23.02;47.16;97703.84;10370853;28;20067;-52
2023/05/25 10:33:12;;;;;;;4.82;4.28;;;;;;;22.90;47.22;97725.66;10370695;28;20072;-48
2023/05/25 10:38:12;;;;;;;5.85;4.90;;;;;;;22.78;49.27;97728.00;10371554;28;20128;-48
2023/05/25 10:43:11;;;;;;;6.20;4.97;;;;;;;22.74;50.04;97718.53;10372239;28;20064;-51
2023/05/25 10:48:10;;;;;;;8.93;5.30;;;;;;;22.77;50.48;97702.47;10363708;28;20155;-50
2023/05/25 10:53:13;;;;;;;5.95;5.00;;;;;;;23.08;48.42;97658.53;10370112;28;20095;-51
2023/05/25 10:58:14;;;;;;;6.00;4.70;;;;;;;22.92;46.27;97668.22;10368887;28;20120;-51
2023/05/25 11:03:13;;;;;;;4.90;4.30;;;;;;;22.95;45.78;97681.28;10358796;28;20120;-53
2023/05/25 11:08:15;;;;;;;5.47;4.40;;;;;;;22.98;45.20;97678.50;10366540;28;20129;-49
2023/05/25 11:13:37;;;;;;;9.20;5.47;;;;;;;23.22;47.96;97660.44;10368874;28;20076;-51
2023/05/25 11:18:50;;;;;;;6.53;5.32;;;;;;;23.71;47.84;97662.25;10358528;28;20076;-52
2023/05/25 11:24:01;;;;;;;6.30;5.57;;;;;;;23.69;48.30;97659.66;10369201;28;20160;-52
2023/05/25 11:29:11;;;;;;;7.30;5.22;;;;;;;23.62;48.41;97632.66;10369557;28;20596;-51
2023/05/25 11:34:11;;;;;;;7.35;4.85;;;;;;;23.72;47.78;97637.44;10364576;28;20492;-52
2023/05/25 11:39:10;;;;;;;5.90;5.22;;;;;;;23.91;48.44;97643.44;10368787;28;20077;-50
2023/05/25 11:44:09;;;;;;;7.05;5.47;;;;;;;24.11;47.74;97644.94;10367730;28;20872;-51
2023/05/25 11:49:08;;;;;;;9.27;5.10;;;;;;;24.32;48.48;97628.75;10368060;28;20081;-52
2023/05/25 11:54:08;;;;;;;6.93;5.32;;;;;;;24.30;46.05;97654.50;10368330;28;20049;-51
2023/05/25 11:59:07;;;;;;;7.25;5.47;;;;;;;24.16;46.10;97648.16;10368398;28;20922;-52
2023/05/25 12:04:11;;;;;;;5.68;5.07;;;;;;;24.39;46.76;97646.84;10359393;28;20901;-52
2023/05/25 12:09:11;;;;;;;6.57;4.68;;;;;;;24.69;43.76;97652.16;10366241;28;20104;-52
2023/05/25 12:14:10;;;;;;;5.03;4.45;;;;;;;25.04;43.72;97641.22;10367107;28;20091;-50
2023/05/25 12:19:10;;;;;;;5.63;4.28;;;;;;;24.94;41.07;97602.06;10361313;28;20091;-51
2023/05/25 12:24:13;;;;;;;5.95;3.97;;;;;;;25.64;41.10;97629.50;10367075;28;20136;-55
2023/05/25 12:29:12;;;;;;;5.05;3.80;;;;;;;25.96;40.40;97610.63;10366217;28;20480;-52
2023/05/25 12:34:16;;;;;;;6.18;3.95;;;;;;;25.31;40.81;97611.22;10367453;28;20863;-52
2023/05/25 12:39:30;;;;;;;6.60;4.47;;;;;;;25.52;41.21;97599.22;10367985;28;20080;-52
2023/05/25 12:44:34;;;;;;;5.78;3.90;;;;;;;25.94;40.93;97583.28;10367953;28;20107;-52
2023/05/25 12:49:34;;;;;;;4.35;3.60;;;;;;;26.29;38.78;97569.47;10367889;28;20080;-52
2023/05/25 12:54:43;;;;;;;7.20;4.30;;;;;;;26.41;38.87;97576.59;10366611;28;20463;-51
2023/05/25 12:59:44;;;;;;;5.43;3.65;;;;;;;26.27;38.91;97572.22;10375190;28;20124;-52
2023/05/25 13:04:43;;;;;;;5.28;4.15;;;;;;;26.30;37.42;97552.53;10376168;28;20167;-51
2023/05/25 13:09:43;;;;;;;5.43;3.95;;;;;;;26.49;39.22;97550.34;10374584;28;20132;-52
2023/05/25 13:14:42;;;;;;;7.57;4.20;;;;;;;26.17;39.50;97542.72;10370810;28;20075;-52
2023/05/25 13:19:41;;;;;;;5.05;4.05;;;;;;;26.30;38.34;97550.75;10373307;28;20027;-51
2023/05/25 13:24:39;;;;;;;5.78;3.78;;;;;;;26.61;37.89;97555.78;10373553;28;20132;-52
2023/05/25 13:29:38;;;;;;;6.18;4.30;;;;;;;26.27;38.19;97511.03;10373669;28;20060;-49
2023/05/25 13:34:37;;;;;;;6.32;4.38;;;;;;;26.62;38.97;97544.16;10374012;28;20036;-51
2023/05/25 13:39:37;;;;;;;5.50;4.00;;;;;;;26.45;38.52;97548.84;10371085;28;20040;-52
2023/05/25 13:44:36;;;;;;;5.10;3.95;;;;;;;26.25;38.21;97549.34;10373044;28;20554;-52
2023/05/25 13:49:35;;;;;;;7.03;4.60;;;;;;;26.38;37.66;97555.53;10373553;28;20064;-51
2023/05/25 13:54:34;;;;;;;6.93;4.20;;;;;;;26.74;36.93;97545.94;10370854;28;20048;-52
2023/05/25 13:59:33;;;;;;;4.90;4.07;;;;;;;26.95;36.19;97540.97;10372150;28;20040;-52
2023/05/25 14:04:32;;;;;;;6.03;3.90;;;;;;;26.92;35.98;97544.69;10369543;28;20036;-50
2023/05/25 14:09:31;;;;;;;6.10;4.40;;;;;;;26.98;36.41;97536.28;10371006;28;20063;-53
2023/05/25 14:14:30;;;;;;;6.80;4.28;;;;;;;26.34;37.89;97520.31;10370809;28;20115;-51
2023/05/25 14:19:29;;;;;;;10.00;4.65;;;;;;;26.11;38.11;97551.13;10371860;28;20104;-51
2023/05/25 14:24:28;;;;;;;8.68;4.53;;;;;;;25.98;38.95;97549.38;10372491;28;20073;-52
2023/05/25 14:29:27;;;;;;;5.72;4.60;;;;;;;25.93;39.91;97544.38;10370758;28;20033;-52
2023/05/25 14:34:26;;;;;;;5.72;4.72;;;;;;;26.44;39.95;97533.84;10371146;28;20124;-50
2023/05/25 14:39:25;;;;;;;6.10;4.50;;;;;;;26.26;39.84;97545.75;10370705;28;20124;-53
2023/05/25 14:44:24;;;;;;;6.22;4.55;;;;;;;26.08;40.30;97551.31;10373125;28;20116;-52
2023/05/25 14:49:23;;;;;;;8.32;4.82;;;;;;;25.49;41.61;97540.16;10372476;28;20456;-51
2023/05/25 14:54:22;;;;;;;7.63;4.65;;;;;;;25.31;42.62;97551.00;10371372;28;20076;-51
2023/05/25 14:59:21;;;;;;;6.00;4.70;;;;;;;25.23;42.56;97560.41;10367272;28;20569;-52
2023/05/25 15:04:20;;;;;;;5.65;4.80;;;;;;;25.03;43.50;97577.59;10364679;28;20120;-51
2023/05/25 15:09:19;;;;;;;4.18;3.25;;;;;;;24.95;41.98;97546.22;10366279;28;20041;-51
2023/05/25 15:14:18;;;;;;;6.45;3.25;;;;;;;25.05;41.72;97570.38;10363474;28;20543;-52
2023/05/25 15:19:17;;;;;;;5.68;3.50;;;;;;;24.70;41.83;97549.50;10363741;28;20056;-52
2023/05/25 15:24:16;;;;;;;5.95;3.50;;;;;;;24.34;41.29;97552.63;10366878;28;20044;-52
2023/05/25 15:29:15;;;;;;;6.82;3.53;;;;;;;24.09;42.24;97543.41;10366275;28;20029;-52
2023/05/25 15:34:14;;;;;;;5.97;3.58;;;;;;;24.17;42.00;97540.31;10367090;28;20079;-52
2023/05/25 15:39:14;;;;;;;7.68;3.28;;;;;;;24.18;42.42;97542.06;10366996;28;20088;-51
2023/05/25 15:44:13;;;;;;;3.95;3.38;;;;;;;24.49;41.50;97559.63;10367150;28;20076;-52
2023/05/25 15:49:12;;;;;;;7.80;3.78;;;;;;;24.73;41.11;97562.59;10365392;28;20136;-52
2023/05/25 15:54:11;;;;;;;5.10;3.10;;;;;;;25.08;41.02;97568.41;10365923;28;20041;-54
2023/05/25 15:59:11;;;;;;;4.75;3.30;;;;;;;25.38;41.43;97553.25;10364072;28;20140;-53
2023/05/25 16:04:10;;;;;;;5.75;3.33;;;;;;;25.60;41.18;97507.56;10364964;28;20500;-50
2023/05/25 16:09:09;;;;;;;4.50;3.38;;;;;;;26.03;40.98;97545.44;10364744;28;20124;-50
2023/05/25 16:14:08;;;;;;;5.20;3.58;;;;;;;25.80;41.36;97540.81;10353782;28;20140;-52
2023/05/25 16:19:07;;;;;;;5.93;3.90;;;;;;;25.43;42.58;97541.38;10365002;28;20108;-50
2023/05/25 16:24:06;;;;;;;5.85;3.65;;;;;;;25.02;43.62;97552.84;10365102;28;20037;-53
2023/05/25 16:29:05;;;;;;;6.45;3.90;;;;;;;24.45;44.93;97574.00;10363992;28;20412;-53
2023/05/25 16:34:04;;;;;;;13.57;3.97;;;;;;;24.16;45.68;97559.81;10365267;28;20041;-50
2023/05/25 16:39:04;;;;;;;8.27;4.07;;;;;;;23.59;45.96;97598.41;10363724;28;20141;-51
2023/05/25 16:44:03;;;;;;;9.50;4.25;;;;;;;22.87;47.62;97601.47;10357079;28;20136;-51
2023/05/25 16:49:02;;;;;;;7.93;4.75;;;;;;;22.07;49.42;97616.13;10352293;28;20045;-52
2023/05/25 16:54:01;;;;;;;8.80;4.72;;;;;;;21.39;51.39;97615.84;10362467;28;20149;-51
2023/05/25 16:59:00;;;;;;;6.72;4.85;;;;;;;20.75;54.32;97638.03;10358121;28;20145;-49
2023/05/25 17:03:59;;;;;;;7.78;4.88;;;;;;;20.30;57.42;97605.66;10361587;28;20458;-52
2023/05/25 17:08:59;;;;;;;8.32;4.75;;;;;;;19.85;59.89;97611.94;10364561;28;20147;-52
2023/05/25 17:13:58;;;;;;;11.80;5.60;;;;;;;19.52;61.36;97628.13;10364550;28;20523;-51
2023/05/25 17:18:57;;;;;;;8.27;4.90;;;;;;;19.32;62.79;97635.91;10362661;28;20494;-51
2023/05/25 17:23:56;;;;;;;7.15;4.05;;;;;;;19.08;61.44;97640.34;10363928;28;20119;-50
2023/05/25 17:28:57;;;;;;;8.20;4.75;;;;;;;19.03;62.32;97662.38;10361963;28;20045;-51
2023/05/25 17:33:56;;;;;;;7.50;4.90;;;;;;;18.83;63.31;97659.66;10363583;28;20124;-53
2023/05/25 17:38:55;;;;;;;4.85;3.83;;;;;;;18.67;63.90;97669.81;10363764;28;20025;-52
2023/05/25 17:43:54;;;;;;;7.82;4.55;;;;;;;18.63;63.91;97696.25;10368298;28;20087;-50
2023/05/25 17:48:53;;;;;;;6.15;3.95;;;;;;;18.46;62.45;97710.81;10368877;28;20045;-49
2023/05/25 17:53:52;;;;;;;7.25;3.88;;;;;;;18.08;63.62;97770.72;10370119;28;20037;-51
2023/05/25 17:58:51;;;;;;;6.15;4.10;;;;;;;17.57;71.22;97784.44;10369737;28;20900;-50
2023/05/25 18:03:52;;;;;;;7.45;3.90;;;;;;;16.86;76.95;97798.59;10369488;28;20431;-51
2023/05/25 18:08:51;;;;;;;8.80;4.90;;;;;;;16.45;79.05;97801.31;10368777;28;20099;-52
2023/05/25 18:13:50;;;;;;;8.55;5.05;;;;;;;15.04;82.52;97636.97;10369284;28;20079;-51
2023/05/25 18:18:48;;;;;;;6.75;4.57;;;;;;;16.03;84.31;97858.13;10367592;28;20029;-52
2023/05/25 18:23:47;;;;;;;;;;;;;;;16.00;85.31;97877.38;10370258;28;20419;-50
2023/05/25 18:28:46;;;;;;;10.63;6.83;;;;;;;15.91;86.94;97893.25;10369236;28;20027;-53
2023/05/25 18:33:45;;;;;;;12.40;7.50;;;;;;;15.86;88.92;97905.59;10368773;28;20530;-51
2023/05/25 18:38:44;;;;;;;12.23;8.30;;;;;;;15.87;90.22;97912.53;10368594;28;20115;-51
2023/05/25 18:43:43;;;;;;;17.25;8.15;;;;;;;15.94;90.43;97893.19;10369223;28;20115;-51
2023/05/25 18:48:42;;;;;;;13.32;8.10;;;;;;;16.03;92.20;97840.66;10367428;28;20128;-49
2023/05/25 18:53:41;;;;;;;10.18;7.43;;;;;;;16.00;92.53;97821.56;10366834;28;20324;-50
2023/05/25 18:58:40;;;;;;;14.05;7.80;;;;;;;16.02;92.67;97857.25;10366513;28;20479;-49
2023/05/25 19:03:39;;;;;;;12.75;8.95;;;;;;;15.94;92.13;97856.56;10365445;28;20407;-50
2023/05/25 19:08:39;;;;;;;;;;;;;;;16.01;92.95;97857.28;10367046;28;20119;-49
2023/05/25 19:13:38;;;;;;;12.07;8.23;;;;;;;16.03;93.02;97871.22;10365666;28;21190;-51
2023/05/25 19:18:37;;;;;;;;;;;;;;;16.03;92.71;97842.41;10366091;28;20045;-51
2023/05/25 19:23:35;;;;;;;17.43;10.20;;;;;;;16.09;92.58;97822.22;10366458;28;19912;-54
2023/05/25 19:28:34;;;;;;;;;;;;;;;16.15;92.95;97817.72;10366585;28;20033;-51
2023/05/25 19:33:33;;;;;;;12.50;8.00;;;;;;;16.22;93.63;97829.78;10364294;28;19925;-49
2023/05/25 19:38:32;;;;;;;;;;;;;;;16.22;93.46;97819.31;10365904;28;20433;-51
2023/05/25 19:43:31;;;;;;;12.30;8.27;;;;;;;16.26;92.98;97813.13;10365859;28;19912;-51
2023/05/25 19:48:30;;;;;;;;;;;;;;;16.17;94.29;97823.78;10365914;28;20028;-50
2023/05/25 19:53:30;;;;;;;13.70;8.53;;;;;;;16.13;94.17;97809.03;10363954;28;19959;-50
2023/05/25 19:58:29;;;;;;;12.90;10.18;;;;;;;15.98;95.08;97816.34;10364140;28;20116;-51
2023/05/25 20:03:28;;;;;;;14.70;9.25;;;;;;;15.66;96.12;97812.59;10365460;28;20033;-50
2023/05/25 20:08:26;;;;;;;;;;;;;;;15.58;96.34;97831.97;10364148;28;20130;-48
2023/05/25 20:13:25;;;;;;;11.20;8.23;;;;;;;15.39;95.14;97800.97;10365364;28;19916;-51
2023/05/25 20:18:24;;;;;;;;;;;;;;;15.48;95.94;97822.56;10366050;28;20427;-50
2023/05/25 20:23:23;;;;;;;13.57;9.30;;;;;;;15.50;95.78;97832.09;10364489;28;19916;-49
2023/05/25 20:28:22;;;;;;;16.98;10.73;;;;;;;15.49;95.42;97827.78;10365497;28;20562;-51
2023/05/25 20:33:21;;;;;;;;;;;;;;;15.43;95.88;97813.06;10365004;28;20128;-51
2023/05/25 20:38:20;;;;;;;16.40;11.10;;;;;;;15.29;96.60;97812.47;10364579;28;19968;-52
2023/05/25 20:43:18;;;;;;;;;;;;;;;15.26;96.56;97799.47;10365734;28;20021;-49
2023/05/25 20:48:17;;;;;;;18.43;12.03;;;;;;;15.22;96.75;97803.91;10363780;28;20020;-52
2023/05/25 20:53:18;;;;;;;14.27;10.50;;;;;;;15.14;96.12;97778.78;10365526;28;20053;-51
2023/05/25 20:58:17;;;;;;;13.40;9.13;;;;;;;15.06;95.91;97791.13;10364046;28;20124;-51
2023/05/25 21:03:16;;;;;;;11.32;6.78;;;;;;;14.71;95.94;97732.53;10363823;28;20035;-51
2023/05/25 21:08:15;;;;;;;;;;;;;;;14.88;95.72;97774.03;10364979;28;20472;-49
2023/05/25 21:13:14;;;;;;;8.03;5.27;;;;;;;14.80;94.95;97779.38;10364137;28;19912;-52
2023/05/25 21:18:13;;;;;;;8.18;5.13;;;;;;;14.72;94.81;97778.66;10368101;28;20107;-51
2023/05/25 21:23:11;;;;;;;;;;;;;;;14.65;94.73;97780.50;10371855;28;20115;-49
2023/05/25 21:28:10;;;;;;;12.95;6.47;;;;;;;14.58;94.90;97771.03;10371942;28;19917;-50
2023/05/25 21:33:09;;;;;;;;;;;;;;;14.49;95.07;97758.97;10371869;28;20037;-52
2023/05/25 21:38:08;;;;;;;12.30;8.77;;;;;;;14.47;95.14;97770.34;10370819;28;20041;-52
2023/05/25 21:43:07;;;;;;;;;;;;;;;14.38;95.50;97774.84;10369658;28;20041;-49
2023/05/25 21:48:06;;;;;;;15.15;8.77;;;;;;;14.30;96.21;97766.25;10360857;28;20011;-52
2023/05/25 21:53:05;;;;;;;;;;;;;;;14.15;96.64;97767.38;10364958;28;20140;-52
2023/05/25 21:58:04;;;;;;;13.90;9.52;;;;;;;14.11;97.37;97770.03;10364612;28;19928;-52
2023/05/25 22:03:03;;;;;;;;;;;;;;;13.92;98.09;97762.47;10365437;28;20031;-51
2023/05/25 22:08:03;;;;;;;18.35;8.93;;;;;;;13.97;97.58;97755.44;10373596;28;19915;-52
2023/05/25 22:13:02;;;;;;;21.17;12.10;;;;;;;13.92;97.87;97751.19;10373056;28;20056;-51
2023/05/25 22:18:01;;;;;;;27.40;14.38;;;;;;;13.89;97.08;97762.53;10368916;28;20135;-53
2023/05/25 22:23:00;;;;;;;;;;;;;;;13.76;97.48;97756.59;10368414;28;20112;-51
2023/05/25 22:27:59;;;;;;;21.50;13.33;;;;;;;13.73;97.25;97753.19;10370082;28;19951;-49
2023/05/25 22:32:57;;;;;;;;;;;;;;;13.69;97.34;97744.53;10371183;28;20040;-49
2023/05/25 22:37:56;;;;;;;13.98;9.25;;;;;;;13.65;97.88;97753.28;10371620;28;19924;-50
2023/05/25 22:42:55;;;;;;;;;;;;;;;13.54;97.62;97755.19;10372713;28;20104;-50
2023/05/25 22:47:54;;;;;;;12.35;7.13;;;;;;;13.42;97.88;97756.19;10372946;28;20003;-51
2023/05/25 22:52:53;;;;;;;14.48;8.50;;;;;;;13.34;97.89;97760.59;10371582;28;20053;-52
2023/05/25 22:57:52;;;;;;;;;;;;;;;13.34;98.26;97769.28;10371434;28;20061;-52
2023/05/25 23:02:50;;;;;;;31.13;17.27;;;;;;;13.23;99.27;97767.69;10371448;28;19917;-51
2023/05/25 23:07:49;;;;;;;29.08;16.45;;;;;;;13.23;99.05;97772.88;10370938;28;20025;-52
2023/05/25 23:12:49;;;;;;;;;;;;;;;13.23;98.97;97771.13;10370742;28;20032;-52
2023/05/25 23:17:48;;;;;;;16.20;10.80;;;;;;;13.10;98.48;97749.59;10370120;28;20003;-51
2023/05/25 23:22:47;;;;;;;;;;;;;;;13.28;98.37;97768.47;10370799;28;20060;-51